sensor_id;sensor_type;location;lat;lon;timestamp;P1;durP1;ratioP1;P2;durP2;ratioP2
9248;SDS011;4660;41.768;26.198;2023-08-06T00:02:03;10.35;;;4.72;;
9248;SDS011;4660;41.768;26.198;2023-08-06T00:04:29;9.88;;;4.82;;
9248;SDS011;4660;41.768;26.198;2023-08-06T00:06:54;6.82;;;4.85;;
9248;SDS011;4660;41.768;26.198;2023-08-06T00:09:20;8.68;;;4.95;;
9248;SDS011;4660;41.768;26.198;2023-08-06T00:11:45;8.52;;;5.07;;
9248;SDS011;4660;41.768;26.198;2023-08-06T00:14:12;5.95;;;3.97;;
9248;SDS011;4660;41.768;26.198;2023-08-06T00:16:42;10.40;;;4.97;;
9248;SDS011;4660;41.768;26.198;2023-08-06T00:19:08;9.30;;;5.10;;
9248;SDS011;4660;41.768;26.198;2023-08-06T00:21:34;10.18;;;5.50;;
9248;SDS011;4660;41.768;26.198;2023-08-06T00:24:00;8.05;;;5.43;;
9248;SDS011;4660;41.768;26.198;2023-08-06T00:26:25;10.18;;;5.32;;
9248;SDS011;4660;41.768;26.198;2023-08-06T00:28:51;5.38;;;4.80;;
9248;SDS011;4660;41.768;26.198;2023-08-06T00:31:16;10.68;;;5.80;;
9248;SDS011;4660;41.768;26.198;2023-08-06T00:33:42;7.38;;;5.18;;
9248;SDS011;4660;41.768;26.198;2023-08-06T00:36:07;6.65;;;4.22;;
9248;SDS011;4660;41.768;26.198;2023-08-06T00:38:33;7.05;;;4.78;;
9248;SDS011;4660;41.768;26.198;2023-08-06T00:40:58;9.38;;;5.32;;
9248;SDS011;4660;41.768;26.198;2023-08-06T00:43:24;6.78;;;4.78;;
9248;SDS011;4660;41.768;26.198;2023-08-06T00:45:49;11.20;;;4.75;;
9248;SDS011;4660;41.768;26.198;2023-08-06T00:48:15;8.50;;;4.82;;
9248;SDS011;4660;41.768;26.198;2023-08-06T00:50:41;9.48;;;4.63;;
9248;SDS011;4660;41.768;26.198;2023-08-06T00:53:07;10.30;;;4.90;;
9248;SDS011;4660;41.768;26.198;2023-08-06T00:55:33;9.05;;;5.30;;
9248;SDS011;4660;41.768;26.198;2023-08-06T00:57:59;11.18;;;5.10;;
9248;SDS011;4660;41.768;26.198;2023-08-06T01:00:26;13.88;;;4.82;;
9248;SDS011;4660;41.768;26.198;2023-08-06T01:02:52;12.50;;;5.28;;
9248;SDS011;4660;41.768;26.198;2023-08-06T01:05:18;7.05;;;5.22;;
9248;SDS011;4660;41.768;26.198;2023-08-06T01:10:37;9.43;;;5.60;;
9248;SDS011;4660;41.768;26.198;2023-08-06T01:16:08;5.70;;;5.10;;
9248;SDS011;4660;41.768;26.198;2023-08-06T01:18:35;8.60;;;5.40;;
9248;SDS011;4660;41.768;26.198;2023-08-06T01:21:02;9.68;;;5.95;;
9248;SDS011;4660;41.768;26.198;2023-08-06T01:23:27;9.75;;;5.40;;
9248;SDS011;4660;41.768;26.198;2023-08-06T01:28:44;6.10;;;5.47;;
9248;SDS011;4660;41.768;26.198;2023-08-06T01:31:51;8.85;;;5.93;;
9248;SDS011;4660;41.768;26.198;2023-08-06T01:34:23;10.10;;;6.68;;
9248;SDS011;4660;41.768;26.198;2023-08-06T01:36:50;10.55;;;6.50;;
9248;SDS011;4660;41.768;26.198;2023-08-06T01:39:17;8.02;;;6.28;;
9248;SDS011;4660;41.768;26.198;2023-08-06T01:41:46;9.73;;;5.88;;
9248;SDS011;4660;41.768;26.198;2023-08-06T01:44:12;8.35;;;5.75;;
9248;SDS011;4660;41.768;26.198;2023-08-06T01:46:38;8.43;;;5.47;;
9248;SDS011;4660;41.768;26.198;2023-08-06T01:49:04;10.68;;;5.88;;
9248;SDS011;4660;41.768;26.198;2023-08-06T01:51:29;10.15;;;6.25;;
9248;SDS011;4660;41.768;26.198;2023-08-06T01:53:55;9.13;;;6.45;;
9248;SDS011;4660;41.768;26.198;2023-08-06T01:56:20;11.40;;;6.13;;
9248;SDS011;4660;41.768;26.198;2023-08-06T01:58:46;10.20;;;5.40;;
9248;SDS011;4660;41.768;26.198;2023-08-06T02:01:11;8.68;;;6.22;;
9248;SDS011;4660;41.768;26.198;2023-08-06T02:03:36;12.85;;;6.97;;
9248;SDS011;4660;41.768;26.198;2023-08-06T02:06:02;9.27;;;6.15;;
9248;SDS011;4660;41.768;26.198;2023-08-06T02:08:27;7.88;;;6.22;;
9248;SDS011;4660;41.768;26.198;2023-08-06T02:10:53;11.45;;;5.85;;
9248;SDS011;4660;41.768;26.198;2023-08-06T02:13:19;10.25;;;5.93;;
9248;SDS011;4660;41.768;26.198;2023-08-06T02:15:44;9.88;;;5.88;;
9248;SDS011;4660;41.768;26.198;2023-08-06T02:18:13;9.68;;;5.90;;
9248;SDS011;4660;41.768;26.198;2023-08-06T02:20:39;10.00;;;6.10;;
9248;SDS011;4660;41.768;26.198;2023-08-06T02:23:05;8.57;;;5.97;;
9248;SDS011;4660;41.768;26.198;2023-08-06T02:25:31;7.43;;;6.10;;
9248;SDS011;4660;41.768;26.198;2023-08-06T02:27:56;10.50;;;6.32;;
9248;SDS011;4660;41.768;26.198;2023-08-06T02:30:22;11.48;;;5.72;;
9248;SDS011;4660;41.768;26.198;2023-08-06T02:32:47;7.45;;;5.82;;
9248;SDS011;4660;41.768;26.198;2023-08-06T02:35:13;11.75;;;6.25;;
9248;SDS011;4660;41.768;26.198;2023-08-06T02:37:38;7.43;;;5.75;;
9248;SDS011;4660;41.768;26.198;2023-08-06T02:40:04;9.48;;;6.75;;
9248;SDS011;4660;41.768;26.198;2023-08-06T02:42:30;8.88;;;5.60;;
9248;SDS011;4660;41.768;26.198;2023-08-06T02:44:55;8.73;;;5.65;;
9248;SDS011;4660;41.768;26.198;2023-08-06T02:47:21;9.82;;;6.22;;
9248;SDS011;4660;41.768;26.198;2023-08-06T02:49:47;9.02;;;6.70;;
9248;SDS011;4660;41.768;26.198;2023-08-06T02:52:12;8.88;;;7.68;;
9248;SDS011;4660;41.768;26.198;2023-08-06T02:54:37;9.65;;;7.07;;
9248;SDS011;4660;41.768;26.198;2023-08-06T02:57:04;10.98;;;7.30;;
9248;SDS011;4660;41.768;26.198;2023-08-06T02:59:30;8.65;;;7.00;;
9248;SDS011;4660;41.768;26.198;2023-08-06T03:01:56;10.07;;;7.13;;
9248;SDS011;4660;41.768;26.198;2023-08-06T03:04:22;9.93;;;6.28;;
9248;SDS011;4660;41.768;26.198;2023-08-06T03:06:49;8.48;;;6.43;;
9248;SDS011;4660;41.768;26.198;2023-08-06T03:09:15;8.88;;;6.35;;
9248;SDS011;4660;41.768;26.198;2023-08-06T03:11:40;9.77;;;6.60;;
9248;SDS011;4660;41.768;26.198;2023-08-06T03:14:06;8.48;;;6.80;;
9248;SDS011;4660;41.768;26.198;2023-08-06T03:16:31;7.57;;;6.78;;
9248;SDS011;4660;41.768;26.198;2023-08-06T03:18:57;11.88;;;7.15;;
9248;SDS011;4660;41.768;26.198;2023-08-06T03:21:22;9.13;;;7.57;;
9248;SDS011;4660;41.768;26.198;2023-08-06T03:23:48;10.40;;;8.48;;
9248;SDS011;4660;41.768;26.198;2023-08-06T03:26:16;9.55;;;7.10;;
9248;SDS011;4660;41.768;26.198;2023-08-06T03:28:42;17.02;;;8.77;;
9248;SDS011;4660;41.768;26.198;2023-08-06T03:31:07;12.32;;;8.25;;
9248;SDS011;4660;41.768;26.198;2023-08-06T03:33:33;10.18;;;7.63;;
9248;SDS011;4660;41.768;26.198;2023-08-06T03:35:58;11.98;;;7.38;;
9248;SDS011;4660;41.768;26.198;2023-08-06T03:38:24;12.90;;;8.07;;
9248;SDS011;4660;41.768;26.198;2023-08-06T03:40:50;11.00;;;8.20;;
9248;SDS011;4660;41.768;26.198;2023-08-06T03:43:16;12.93;;;8.10;;
9248;SDS011;4660;41.768;26.198;2023-08-06T03:45:41;13.43;;;8.38;;
9248;SDS011;4660;41.768;26.198;2023-08-06T03:48:07;8.50;;;7.63;;
9248;SDS011;4660;41.768;26.198;2023-08-06T03:50:33;12.27;;;7.47;;
9248;SDS011;4660;41.768;26.198;2023-08-06T03:52:59;9.30;;;6.97;;
9248;SDS011;4660;41.768;26.198;2023-08-06T03:55:24;9.75;;;7.72;;
9248;SDS011;4660;41.768;26.198;2023-08-06T03:57:50;13.63;;;8.35;;
9248;SDS011;4660;41.768;26.198;2023-08-06T04:00:15;10.25;;;7.95;;
9248;SDS011;4660;41.768;26.198;2023-08-06T04:02:41;12.80;;;7.80;;
9248;SDS011;4660;41.768;26.198;2023-08-06T04:05:07;11.38;;;8.40;;
9248;SDS011;4660;41.768;26.198;2023-08-06T04:07:32;10.80;;;8.55;;
9248;SDS011;4660;41.768;26.198;2023-08-06T04:09:58;11.18;;;8.98;;
9248;SDS011;4660;41.768;26.198;2023-08-06T04:12:25;12.30;;;8.05;;
9248;SDS011;4660;41.768;26.198;2023-08-06T04:14:52;9.85;;;7.80;;
9248;SDS011;4660;41.768;26.198;2023-08-06T04:17:18;12.25;;;8.43;;
9248;SDS011;4660;41.768;26.198;2023-08-06T04:19:52;12.40;;;8.68;;
9248;SDS011;4660;41.768;26.198;2023-08-06T04:22:18;11.45;;;7.95;;
9248;SDS011;4660;41.768;26.198;2023-08-06T04:24:44;12.98;;;7.60;;
9248;SDS011;4660;41.768;26.198;2023-08-06T04:27:10;12.30;;;7.68;;
9248;SDS011;4660;41.768;26.198;2023-08-06T04:29:36;9.63;;;7.28;;
9248;SDS011;4660;41.768;26.198;2023-08-06T04:32:03;10.57;;;8.40;;
9248;SDS011;4660;41.768;26.198;2023-08-06T04:34:29;10.23;;;8.15;;
9248;SDS011;4660;41.768;26.198;2023-08-06T04:36:54;13.23;;;8.10;;
9248;SDS011;4660;41.768;26.198;2023-08-06T04:39:20;11.30;;;8.25;;
9248;SDS011;4660;41.768;26.198;2023-08-06T04:41:45;11.27;;;7.72;;
9248;SDS011;4660;41.768;26.198;2023-08-06T04:44:11;12.60;;;8.10;;
9248;SDS011;4660;41.768;26.198;2023-08-06T04:46:36;10.50;;;8.40;;
9248;SDS011;4660;41.768;26.198;2023-08-06T04:49:02;13.23;;;8.98;;
9248;SDS011;4660;41.768;26.198;2023-08-06T04:51:27;14.10;;;9.00;;
9248;SDS011;4660;41.768;26.198;2023-08-06T04:53:53;18.58;;;10.50;;
9248;SDS011;4660;41.768;26.198;2023-08-06T04:56:18;13.48;;;11.05;;
9248;SDS011;4660;41.768;26.198;2023-08-06T04:58:44;17.48;;;12.65;;
9248;SDS011;4660;41.768;26.198;2023-08-06T05:01:09;21.50;;;16.75;;
9248;SDS011;4660;41.768;26.198;2023-08-06T05:03:35;19.38;;;16.05;;
9248;SDS011;4660;41.768;26.198;2023-08-06T05:06:00;27.40;;;17.02;;
9248;SDS011;4660;41.768;26.198;2023-08-06T05:08:26;25.40;;;16.02;;
9248;SDS011;4660;41.768;26.198;2023-08-06T05:10:51;19.35;;;16.67;;
9248;SDS011;4660;41.768;26.198;2023-08-06T05:13:17;17.58;;;15.05;;
9248;SDS011;4660;41.768;26.198;2023-08-06T05:15:42;21.25;;;15.90;;
9248;SDS011;4660;41.768;26.198;2023-08-06T05:18:10;23.02;;;18.05;;
9248;SDS011;4660;41.768;26.198;2023-08-06T05:20:37;23.88;;;18.58;;
9248;SDS011;4660;41.768;26.198;2023-08-06T05:23:06;28.05;;;17.45;;
9248;SDS011;4660;41.768;26.198;2023-08-06T05:25:34;21.88;;;18.85;;
9248;SDS011;4660;41.768;26.198;2023-08-06T05:28:00;21.13;;;18.13;;
9248;SDS011;4660;41.768;26.198;2023-08-06T05:30:26;22.52;;;17.50;;
9248;SDS011;4660;41.768;26.198;2023-08-06T05:32:52;24.60;;;16.95;;
9248;SDS011;4660;41.768;26.198;2023-08-06T05:35:18;20.52;;;17.55;;
9248;SDS011;4660;41.768;26.198;2023-08-06T05:37:43;23.30;;;18.15;;
9248;SDS011;4660;41.768;26.198;2023-08-06T05:40:09;20.17;;;18.05;;
9248;SDS011;4660;41.768;26.198;2023-08-06T05:42:34;20.67;;;18.48;;
9248;SDS011;4660;41.768;26.198;2023-08-06T05:45:00;20.10;;;17.25;;
9248;SDS011;4660;41.768;26.198;2023-08-06T05:47:25;22.02;;;19.45;;
9248;SDS011;4660;41.768;26.198;2023-08-06T05:49:51;17.65;;;15.82;;
9248;SDS011;4660;41.768;26.198;2023-08-06T05:52:16;22.45;;;16.08;;
9248;SDS011;4660;41.768;26.198;2023-08-06T05:54:42;18.20;;;16.30;;
9248;SDS011;4660;41.768;26.198;2023-08-06T05:57:07;17.08;;;15.38;;
9248;SDS011;4660;41.768;26.198;2023-08-06T05:59:33;16.23;;;14.45;;
9248;SDS011;4660;41.768;26.198;2023-08-06T06:01:58;19.42;;;14.98;;
9248;SDS011;4660;41.768;26.198;2023-08-06T06:04:24;20.02;;;15.25;;
9248;SDS011;4660;41.768;26.198;2023-08-06T06:06:50;17.48;;;13.82;;
9248;SDS011;4660;41.768;26.198;2023-08-06T06:09:15;18.65;;;14.48;;
9248;SDS011;4660;41.768;26.198;2023-08-06T06:11:41;20.35;;;14.40;;
9248;SDS011;4660;41.768;26.198;2023-08-06T06:14:07;17.13;;;13.48;;
9248;SDS011;4660;41.768;26.198;2023-08-06T06:16:33;16.30;;;12.93;;
9248;SDS011;4660;41.768;26.198;2023-08-06T06:18:59;15.50;;;13.23;;
9248;SDS011;4660;41.768;26.198;2023-08-06T06:21:24;16.10;;;12.98;;
9248;SDS011;4660;41.768;26.198;2023-08-06T06:23:50;16.85;;;12.35;;
9248;SDS011;4660;41.768;26.198;2023-08-06T06:26:17;15.63;;;12.82;;
9248;SDS011;4660;41.768;26.198;2023-08-06T06:28:43;13.30;;;10.65;;
9248;SDS011;4660;41.768;26.198;2023-08-06T06:31:08;17.38;;;11.25;;
9248;SDS011;4660;41.768;26.198;2023-08-06T06:33:34;14.38;;;10.60;;
9248;SDS011;4660;41.768;26.198;2023-08-06T06:36:00;13.55;;;10.45;;
9248;SDS011;4660;41.768;26.198;2023-08-06T06:38:28;13.68;;;10.27;;
9248;SDS011;4660;41.768;26.198;2023-08-06T06:40:56;11.05;;;9.82;;
9248;SDS011;4660;41.768;26.198;2023-08-06T06:43:22;15.80;;;10.43;;
9248;SDS011;4660;41.768;26.198;2023-08-06T06:46:06;19.38;;;11.02;;
9248;SDS011;4660;41.768;26.198;2023-08-06T06:48:32;11.18;;;9.90;;
9248;SDS011;4660;41.768;26.198;2023-08-06T06:50:58;14.45;;;10.57;;
9248;SDS011;4660;41.768;26.198;2023-08-06T06:53:25;15.80;;;10.25;;
9248;SDS011;4660;41.768;26.198;2023-08-06T06:55:55;10.98;;;9.43;;
9248;SDS011;4660;41.768;26.198;2023-08-06T06:58:26;13.75;;;9.93;;
9248;SDS011;4660;41.768;26.198;2023-08-06T07:00:51;12.00;;;8.68;;
9248;SDS011;4660;41.768;26.198;2023-08-06T07:03:17;9.30;;;7.70;;
9248;SDS011;4660;41.768;26.198;2023-08-06T07:05:43;10.38;;;8.13;;
9248;SDS011;4660;41.768;26.198;2023-08-06T07:08:09;12.77;;;8.52;;
9248;SDS011;4660;41.768;26.198;2023-08-06T07:10:35;12.57;;;8.18;;
9248;SDS011;4660;41.768;26.198;2023-08-06T07:13:00;9.05;;;7.57;;
9248;SDS011;4660;41.768;26.198;2023-08-06T07:15:26;11.73;;;7.60;;
9248;SDS011;4660;41.768;26.198;2023-08-06T07:17:51;8.82;;;7.57;;
9248;SDS011;4660;41.768;26.198;2023-08-06T07:20:17;10.60;;;7.63;;
9248;SDS011;4660;41.768;26.198;2023-08-06T07:22:43;11.63;;;7.32;;
9248;SDS011;4660;41.768;26.198;2023-08-06T07:25:09;9.85;;;7.65;;
9248;SDS011;4660;41.768;26.198;2023-08-06T07:27:35;9.73;;;7.40;;
9248;SDS011;4660;41.768;26.198;2023-08-06T07:30:00;14.38;;;7.25;;
9248;SDS011;4660;41.768;26.198;2023-08-06T07:32:26;9.05;;;7.07;;
9248;SDS011;4660;41.768;26.198;2023-08-06T07:34:53;11.95;;;6.53;;
9248;SDS011;4660;41.768;26.198;2023-08-06T07:37:22;9.48;;;6.18;;
9248;SDS011;4660;41.768;26.198;2023-08-06T07:39:48;10.20;;;6.72;;
9248;SDS011;4660;41.768;26.198;2023-08-06T07:42:13;7.50;;;5.88;;
9248;SDS011;4660;41.768;26.198;2023-08-06T07:44:39;8.27;;;6.10;;
9248;SDS011;4660;41.768;26.198;2023-08-06T07:47:05;8.25;;;6.15;;
9248;SDS011;4660;41.768;26.198;2023-08-06T07:49:30;8.35;;;6.22;;
9248;SDS011;4660;41.768;26.198;2023-08-06T07:51:56;7.57;;;6.13;;
9248;SDS011;4660;41.768;26.198;2023-08-06T07:54:21;9.77;;;5.55;;
9248;SDS011;4660;41.768;26.198;2023-08-06T07:56:47;9.73;;;5.50;;
9248;SDS011;4660;41.768;26.198;2023-08-06T07:59:13;7.13;;;5.40;;
9248;SDS011;4660;41.768;26.198;2023-08-06T08:01:38;6.88;;;5.00;;
9248;SDS011;4660;41.768;26.198;2023-08-06T08:04:04;11.25;;;5.43;;
9248;SDS011;4660;41.768;26.198;2023-08-06T08:06:30;13.90;;;3.95;;
9248;SDS011;4660;41.768;26.198;2023-08-06T08:08:55;13.60;;;2.97;;
9248;SDS011;4660;41.768;26.198;2023-08-06T08:11:21;6.93;;;3.50;;
9248;SDS011;4660;41.768;26.198;2023-08-06T08:13:46;7.13;;;2.30;;
9248;SDS011;4660;41.768;26.198;2023-08-06T08:16:12;5.55;;;2.60;;
9248;SDS011;4660;41.768;26.198;2023-08-06T08:18:37;5.85;;;2.05;;
9248;SDS011;4660;41.768;26.198;2023-08-06T08:21:03;6.18;;;1.90;;
9248;SDS011;4660;41.768;26.198;2023-08-06T08:23:28;9.27;;;2.85;;
9248;SDS011;4660;41.768;26.198;2023-08-06T08:25:54;3.75;;;1.77;;
9248;SDS011;4660;41.768;26.198;2023-08-06T08:28:19;4.20;;;1.98;;
9248;SDS011;4660;41.768;26.198;2023-08-06T08:30:45;4.60;;;1.75;;
9248;SDS011;4660;41.768;26.198;2023-08-06T08:33:10;3.58;;;1.50;;
9248;SDS011;4660;41.768;26.198;2023-08-06T08:35:36;4.30;;;1.48;;
9248;SDS011;4660;41.768;26.198;2023-08-06T08:38:02;2.92;;;1.70;;
9248;SDS011;4660;41.768;26.198;2023-08-06T08:40:31;1.48;;;1.35;;
9248;SDS011;4660;41.768;26.198;2023-08-06T08:42:58;3.15;;;1.55;;
9248;SDS011;4660;41.768;26.198;2023-08-06T08:45:26;3.95;;;1.60;;
9248;SDS011;4660;41.768;26.198;2023-08-06T08:47:53;2.00;;;1.65;;
9248;SDS011;4660;41.768;26.198;2023-08-06T08:50:19;3.67;;;1.67;;
9248;SDS011;4660;41.768;26.198;2023-08-06T08:52:46;16.42;;;2.90;;
9248;SDS011;4660;41.768;26.198;2023-08-06T08:55:14;8.00;;;2.78;;
9248;SDS011;4660;41.768;26.198;2023-08-06T08:57:40;16.67;;;4.93;;
9248;SDS011;4660;41.768;26.198;2023-08-06T09:00:06;17.75;;;4.85;;
9248;SDS011;4660;41.768;26.198;2023-08-06T09:02:32;5.32;;;3.30;;
9248;SDS011;4660;41.768;26.198;2023-08-06T09:04:59;15.73;;;4.25;;
9248;SDS011;4660;41.768;26.198;2023-08-06T09:07:27;9.90;;;3.92;;
9248;SDS011;4660;41.768;26.198;2023-08-06T09:09:56;9.95;;;3.85;;
9248;SDS011;4660;41.768;26.198;2023-08-06T09:12:26;7.63;;;4.10;;
9248;SDS011;4660;41.768;26.198;2023-08-06T09:14:52;11.80;;;4.00;;
9248;SDS011;4660;41.768;26.198;2023-08-06T09:17:19;5.93;;;3.92;;
9248;SDS011;4660;41.768;26.198;2023-08-06T09:19:45;8.55;;;4.32;;
9248;SDS011;4660;41.768;26.198;2023-08-06T09:22:13;8.57;;;4.90;;
9248;SDS011;4660;41.768;26.198;2023-08-06T09:24:39;10.57;;;5.28;;
9248;SDS011;4660;41.768;26.198;2023-08-06T09:27:10;12.63;;;5.63;;
9248;SDS011;4660;41.768;26.198;2023-08-06T09:29:39;5.68;;;4.50;;
9248;SDS011;4660;41.768;26.198;2023-08-06T09:32:10;8.27;;;5.00;;
9248;SDS011;4660;41.768;26.198;2023-08-06T09:34:46;5.70;;;4.00;;
9248;SDS011;4660;41.768;26.198;2023-08-06T09:37:12;7.60;;;4.88;;
9248;SDS011;4660;41.768;26.198;2023-08-06T09:39:38;4.95;;;4.28;;
9248;SDS011;4660;41.768;26.198;2023-08-06T09:42:08;7.93;;;4.45;;
9248;SDS011;4660;41.768;26.198;2023-08-06T09:44:33;7.05;;;4.70;;
9248;SDS011;4660;41.768;26.198;2023-08-06T09:47:03;7.15;;;5.22;;
9248;SDS011;4660;41.768;26.198;2023-08-06T09:51:58;5.40;;;3.58;;
9248;SDS011;4660;41.768;26.198;2023-08-06T09:54:26;3.97;;;3.38;;
9248;SDS011;4660;41.768;26.198;2023-08-06T09:56:53;9.55;;;5.30;;
9248;SDS011;4660;41.768;26.198;2023-08-06T09:59:24;7.82;;;4.20;;
9248;SDS011;4660;41.768;26.198;2023-08-06T10:01:50;7.85;;;4.13;;
9248;SDS011;4660;41.768;26.198;2023-08-06T10:04:16;8.05;;;4.03;;
9248;SDS011;4660;41.768;26.198;2023-08-06T10:06:43;7.38;;;4.05;;
9248;SDS011;4660;41.768;26.198;2023-08-06T10:09:11;5.25;;;3.30;;
9248;SDS011;4660;41.768;26.198;2023-08-06T10:11:38;6.85;;;3.78;;
9248;SDS011;4660;41.768;26.198;2023-08-06T10:14:12;6.30;;;3.35;;
9248;SDS011;4660;41.768;26.198;2023-08-06T10:16:50;5.60;;;3.33;;
9248;SDS011;4660;41.768;26.198;2023-08-06T10:19:16;8.07;;;3.55;;
9248;SDS011;4660;41.768;26.198;2023-08-06T10:24:58;6.25;;;2.90;;
9248;SDS011;4660;41.768;26.198;2023-08-06T10:27:30;4.55;;;2.78;;
9248;SDS011;4660;41.768;26.198;2023-08-06T10:32:57;3.22;;;2.47;;
9248;SDS011;4660;41.768;26.198;2023-08-06T10:40:40;5.65;;;2.88;;
9248;SDS011;4660;41.768;26.198;2023-08-06T10:43:07;4.57;;;2.30;;
9248;SDS011;4660;41.768;26.198;2023-08-06T10:45:37;5.97;;;2.90;;
9248;SDS011;4660;41.768;26.198;2023-08-06T10:48:03;5.75;;;2.45;;
9248;SDS011;4660;41.768;26.198;2023-08-06T10:50:30;5.07;;;3.15;;
9248;SDS011;4660;41.768;26.198;2023-08-06T10:52:56;4.63;;;2.75;;
9248;SDS011;4660;41.768;26.198;2023-08-06T10:55:23;4.22;;;3.15;;
9248;SDS011;4660;41.768;26.198;2023-08-06T10:57:50;4.00;;;3.50;;
9248;SDS011;4660;41.768;26.198;2023-08-06T11:00:16;5.25;;;3.00;;
9248;SDS011;4660;41.768;26.198;2023-08-06T11:02:42;4.20;;;3.33;;
9248;SDS011;4660;41.768;26.198;2023-08-06T11:05:11;6.43;;;3.53;;
9248;SDS011;4660;41.768;26.198;2023-08-06T11:07:37;3.58;;;3.28;;
9248;SDS011;4660;41.768;26.198;2023-08-06T11:10:03;4.35;;;3.75;;
9248;SDS011;4660;41.768;26.198;2023-08-06T11:12:33;5.65;;;3.80;;
9248;SDS011;4660;41.768;26.198;2023-08-06T11:14:59;4.93;;;4.40;;
9248;SDS011;4660;41.768;26.198;2023-08-06T11:17:29;4.50;;;4.03;;
9248;SDS011;4660;41.768;26.198;2023-08-06T11:19:55;5.43;;;4.78;;
9248;SDS011;4660;41.768;26.198;2023-08-06T11:22:24;5.10;;;3.95;;
9248;SDS011;4660;41.768;26.198;2023-08-06T11:24:49;7.38;;;4.57;;
9248;SDS011;4660;41.768;26.198;2023-08-06T11:27:15;8.25;;;5.13;;
9248;SDS011;4660;41.768;26.198;2023-08-06T11:29:42;4.82;;;4.32;;
9248;SDS011;4660;41.768;26.198;2023-08-06T11:32:08;6.38;;;4.72;;
9248;SDS011;4660;41.768;26.198;2023-08-06T11:34:35;5.22;;;4.72;;
9248;SDS011;4660;41.768;26.198;2023-08-06T11:37:04;5.88;;;5.28;;
9248;SDS011;4660;41.768;26.198;2023-08-06T11:39:31;6.25;;;5.65;;
9248;SDS011;4660;41.768;26.198;2023-08-06T11:42:02;5.95;;;5.35;;
9248;SDS011;4660;41.768;26.198;2023-08-06T11:44:30;5.55;;;5.05;;
9248;SDS011;4660;41.768;26.198;2023-08-06T11:46:59;7.38;;;5.22;;
9248;SDS011;4660;41.768;26.198;2023-08-06T11:49:39;6.57;;;5.90;;
9248;SDS011;4660;41.768;26.198;2023-08-06T11:55:01;6.72;;;6.03;;
9248;SDS011;4660;41.768;26.198;2023-08-06T11:57:33;6.30;;;5.70;;
9248;SDS011;4660;41.768;26.198;2023-08-06T12:00:12;8.25;;;5.80;;
9248;SDS011;4660;41.768;26.198;2023-08-06T12:02:39;7.82;;;5.68;;
9248;SDS011;4660;41.768;26.198;2023-08-06T12:05:13;6.18;;;5.57;;
9248;SDS011;4660;41.768;26.198;2023-08-06T12:07:41;6.53;;;6.00;;
9248;SDS011;4660;41.768;26.198;2023-08-06T12:10:08;6.53;;;5.93;;
9248;SDS011;4660;41.768;26.198;2023-08-06T12:12:34;6.97;;;5.80;;
9248;SDS011;4660;41.768;26.198;2023-08-06T12:15:01;6.75;;;6.15;;
9248;SDS011;4660;41.768;26.198;2023-08-06T12:17:27;6.50;;;5.90;;
9248;SDS011;4660;41.768;26.198;2023-08-06T12:19:52;6.00;;;5.45;;
9248;SDS011;4660;41.768;26.198;2023-08-06T12:22:18;7.03;;;6.43;;
9248;SDS011;4660;41.768;26.198;2023-08-06T12:24:45;7.45;;;6.45;;
9248;SDS011;4660;41.768;26.198;2023-08-06T12:27:11;6.50;;;5.90;;
9248;SDS011;4660;41.768;26.198;2023-08-06T12:29:40;7.50;;;6.22;;
9248;SDS011;4660;41.768;26.198;2023-08-06T12:32:06;7.72;;;6.57;;
9248;SDS011;4660;41.768;26.198;2023-08-06T12:34:32;7.38;;;6.68;;
9248;SDS011;4660;41.768;26.198;2023-08-06T12:36:57;9.02;;;7.10;;
9248;SDS011;4660;41.768;26.198;2023-08-06T12:39:23;10.88;;;7.78;;
9248;SDS011;4660;41.768;26.198;2023-08-06T12:41:49;10.27;;;7.43;;
9248;SDS011;4660;41.768;26.198;2023-08-06T12:44:14;8.32;;;7.53;;
9248;SDS011;4660;41.768;26.198;2023-08-06T12:46:40;8.07;;;7.35;;
9248;SDS011;4660;41.768;26.198;2023-08-06T12:49:05;8.60;;;7.70;;
9248;SDS011;4660;41.768;26.198;2023-08-06T12:51:32;8.38;;;7.55;;
9248;SDS011;4660;41.768;26.198;2023-08-06T12:53:59;9.25;;;7.78;;
9248;SDS011;4660;41.768;26.198;2023-08-06T12:56:25;8.25;;;7.50;;
9248;SDS011;4660;41.768;26.198;2023-08-06T12:58:50;7.30;;;6.60;;
9248;SDS011;4660;41.768;26.198;2023-08-06T13:01:16;8.45;;;7.75;;
9248;SDS011;4660;41.768;26.198;2023-08-06T13:03:41;8.32;;;7.65;;
9248;SDS011;4660;41.768;26.198;2023-08-06T13:06:07;8.90;;;7.30;;
9248;SDS011;4660;41.768;26.198;2023-08-06T13:08:34;9.50;;;7.55;;
9248;SDS011;4660;41.768;26.198;2023-08-06T13:11:00;8.90;;;8.10;;
9248;SDS011;4660;41.768;26.198;2023-08-06T13:13:26;10.95;;;9.95;;
9248;SDS011;4660;41.768;26.198;2023-08-06T13:15:52;11.45;;;10.43;;
9248;SDS011;4660;41.768;26.198;2023-08-06T13:18:17;13.02;;;11.75;;
9248;SDS011;4660;41.768;26.198;2023-08-06T13:20:43;12.30;;;11.25;;
9248;SDS011;4660;41.768;26.198;2023-08-06T13:23:09;13.38;;;12.15;;
9248;SDS011;4660;41.768;26.198;2023-08-06T13:25:34;13.55;;;12.32;;
9248;SDS011;4660;41.768;26.198;2023-08-06T13:28:05;13.07;;;11.35;;
9248;SDS011;4660;41.768;26.198;2023-08-06T13:30:30;11.68;;;10.68;;
9248;SDS011;4660;41.768;26.198;2023-08-06T13:32:56;11.25;;;10.25;;
9248;SDS011;4660;41.768;26.198;2023-08-06T13:35:22;11.88;;;10.77;;
9248;SDS011;4660;41.768;26.198;2023-08-06T13:37:48;10.48;;;9.68;;
9248;SDS011;4660;41.768;26.198;2023-08-06T13:40:14;10.88;;;9.88;;
9248;SDS011;4660;41.768;26.198;2023-08-06T13:42:40;10.55;;;9.48;;
9248;SDS011;4660;41.768;26.198;2023-08-06T13:45:06;9.90;;;9.10;;
9248;SDS011;4660;41.768;26.198;2023-08-06T13:47:32;10.73;;;9.57;;
9248;SDS011;4660;41.768;26.198;2023-08-06T13:49:58;11.35;;;10.25;;
9248;SDS011;4660;41.768;26.198;2023-08-06T13:52:25;11.48;;;10.48;;
9248;SDS011;4660;41.768;26.198;2023-08-06T13:54:51;12.65;;;11.48;;
9248;SDS011;4660;41.768;26.198;2023-08-06T13:57:17;14.25;;;12.57;;
9248;SDS011;4660;41.768;26.198;2023-08-06T13:59:43;14.48;;;12.40;;
9248;SDS011;4660;41.768;26.198;2023-08-06T14:02:09;12.85;;;11.75;;
9248;SDS011;4660;41.768;26.198;2023-08-06T14:04:35;14.60;;;12.98;;
9248;SDS011;4660;41.768;26.198;2023-08-06T14:07:02;13.55;;;12.45;;
9248;SDS011;4660;41.768;26.198;2023-08-06T14:09:29;12.93;;;11.77;;
9248;SDS011;4660;41.768;26.198;2023-08-06T14:11:54;13.13;;;12.02;;
9248;SDS011;4660;41.768;26.198;2023-08-06T14:14:20;12.85;;;11.85;;
9248;SDS011;4660;41.768;26.198;2023-08-06T14:16:51;13.68;;;11.60;;
9248;SDS011;4660;41.768;26.198;2023-08-06T14:19:20;10.80;;;9.77;;
9248;SDS011;4660;41.768;26.198;2023-08-06T14:21:46;10.00;;;9.07;;
9248;SDS011;4660;41.768;26.198;2023-08-06T14:24:11;12.98;;;11.07;;
9248;SDS011;4660;41.768;26.198;2023-08-06T14:26:38;11.88;;;10.88;;
9248;SDS011;4660;41.768;26.198;2023-08-06T14:29:03;12.32;;;11.13;;
9248;SDS011;4660;41.768;26.198;2023-08-06T14:31:29;11.90;;;10.80;;
9248;SDS011;4660;41.768;26.198;2023-08-06T14:33:55;12.30;;;11.30;;
9248;SDS011;4660;41.768;26.198;2023-08-06T14:36:20;12.20;;;11.18;;
9248;SDS011;4660;41.768;26.198;2023-08-06T14:38:46;11.85;;;10.63;;
9248;SDS011;4660;41.768;26.198;2023-08-06T14:41:12;11.57;;;10.57;;
9248;SDS011;4660;41.768;26.198;2023-08-06T14:43:37;11.50;;;10.32;;
9248;SDS011;4660;41.768;26.198;2023-08-06T14:46:03;10.93;;;9.82;;
9248;SDS011;4660;41.768;26.198;2023-08-06T14:48:29;10.80;;;9.70;;
9248;SDS011;4660;41.768;26.198;2023-08-06T14:50:55;10.70;;;9.80;;
9248;SDS011;4660;41.768;26.198;2023-08-06T14:53:21;10.00;;;9.20;;
9248;SDS011;4660;41.768;26.198;2023-08-06T14:55:47;10.63;;;9.63;;
9248;SDS011;4660;41.768;26.198;2023-08-06T14:58:13;9.02;;;8.18;;
9248;SDS011;4660;41.768;26.198;2023-08-06T15:00:39;8.50;;;7.75;;
9248;SDS011;4660;41.768;26.198;2023-08-06T15:03:04;7.95;;;7.35;;
9248;SDS011;4660;41.768;26.198;2023-08-06T15:05:30;7.10;;;6.50;;
9248;SDS011;4660;41.768;26.198;2023-08-06T15:07:56;7.63;;;6.80;;
9248;SDS011;4660;41.768;26.198;2023-08-06T15:10:21;6.22;;;5.63;;
9248;SDS011;4660;41.768;26.198;2023-08-06T15:12:47;6.18;;;5.60;;
9248;SDS011;4660;41.768;26.198;2023-08-06T15:15:13;7.40;;;5.70;;